Kielce, Poland
Current Conditions -  °F | °C
As of 2:30 PM on Sunday 23 Nov 2014 (Local Time) from EPKK Reporting Station
Broken Clouds Broken Clouds  
Wind Chill: 37°   Ceiling: 2600
Heat Index: 41°   Visibility: 5mi
Dew Point: 36°   Wind: 6mph
Humidity: 81%   Direction: 90°E
Pressure: 30.42"   Gusts: NA
Location:  50.89°N, 20.65°E
Report Text: EPKK 231230Z 09005KT 8000 FEW017 BKN026 05/02 Q1030
Loading
Personal Weather Stations






























Interactive Weather Map New forecast layout! Learn more

10-Day Weather Forecast

Advertisements
Track Severe Weather on mobile